sensor_id;sensor_type;location;lat;lon;timestamp;P1;durP1;ratioP1;P2;durP2;ratioP2
20296;SDS011;10307;40.100;18.336;2022-07-15T00:02:23;5.53;;;2.72;;
20296;SDS011;10307;40.100;18.336;2022-07-15T00:04:50;8.27;;;2.70;;
20296;SDS011;10307;40.100;18.336;2022-07-15T00:07:16;5.43;;;2.00;;
20296;SDS011;10307;40.100;18.336;2022-07-15T00:09:43;4.00;;;2.00;;
20296;SDS011;10307;40.100;18.336;2022-07-15T00:12:28;4.75;;;2.05;;
20296;SDS011;10307;40.100;18.336;2022-07-15T00:14:54;4.35;;;1.65;;
20296;SDS011;10307;40.100;18.336;2022-07-15T00:17:20;6.65;;;2.67;;
20296;SDS011;10307;40.100;18.336;2022-07-15T00:19:46;5.75;;;2.10;;
20296;SDS011;10307;40.100;18.336;2022-07-15T00:22:13;6.22;;;2.90;;
20296;SDS011;10307;40.100;18.336;2022-07-15T00:24:39;3.90;;;2.10;;
20296;SDS011;10307;40.100;18.336;2022-07-15T00:27:05;6.82;;;2.13;;
20296;SDS011;10307;40.100;18.336;2022-07-15T00:29:32;5.90;;;2.42;;
20296;SDS011;10307;40.100;18.336;2022-07-15T00:31:58;4.53;;;2.10;;
20296;SDS011;10307;40.100;18.336;2022-07-15T00:34:25;4.20;;;2.05;;
20296;SDS011;10307;40.100;18.336;2022-07-15T00:36:51;8.05;;;2.33;;
20296;SDS011;10307;40.100;18.336;2022-07-15T00:39:18;2.03;;;1.40;;
20296;SDS011;10307;40.100;18.336;2022-07-15T00:41:44;11.90;;;2.03;;
20296;SDS011;10307;40.100;18.336;2022-07-15T00:44:11;6.32;;;1.70;;
20296;SDS011;10307;40.100;18.336;2022-07-15T00:46:38;4.20;;;1.90;;
20296;SDS011;10307;40.100;18.336;2022-07-15T00:49:06;4.78;;;1.85;;
20296;SDS011;10307;40.100;18.336;2022-07-15T00:51:37;6.60;;;2.10;;
20296;SDS011;10307;40.100;18.336;2022-07-15T00:54:08;3.92;;;1.90;;
20296;SDS011;10307;40.100;18.336;2022-07-15T00:56:37;3.80;;;1.65;;
20296;SDS011;10307;40.100;18.336;2022-07-15T00:59:07;7.55;;;2.42;;
20296;SDS011;10307;40.100;18.336;2022-07-15T01:01:34;3.20;;;1.80;;
20296;SDS011;10307;40.100;18.336;2022-07-15T01:04:04;4.97;;;1.60;;
20296;SDS011;10307;40.100;18.336;2022-07-15T01:06:31;5.78;;;1.70;;
20296;SDS011;10307;40.100;18.336;2022-07-15T01:08:58;4.45;;;1.73;;
20296;SDS011;10307;40.100;18.336;2022-07-15T01:11:25;4.72;;;2.05;;
20296;SDS011;10307;40.100;18.336;2022-07-15T01:13:51;6.13;;;2.03;;
20296;SDS011;10307;40.100;18.336;2022-07-15T01:16:20;9.70;;;1.60;;
20296;SDS011;10307;40.100;18.336;2022-07-15T01:18:47;3.78;;;1.77;;
20296;SDS011;10307;40.100;18.336;2022-07-15T01:21:14;2.95;;;1.85;;
20296;SDS011;10307;40.100;18.336;2022-07-15T01:23:41;4.72;;;2.00;;
20296;SDS011;10307;40.100;18.336;2022-07-15T01:26:24;3.53;;;1.73;;
20296;SDS011;10307;40.100;18.336;2022-07-15T01:28:51;6.22;;;2.35;;
20296;SDS011;10307;40.100;18.336;2022-07-15T01:31:20;5.20;;;1.92;;
20296;SDS011;10307;40.100;18.336;2022-07-15T01:33:46;7.45;;;2.20;;
20296;SDS011;10307;40.100;18.336;2022-07-15T01:36:13;3.22;;;1.80;;
20296;SDS011;10307;40.100;18.336;2022-07-15T01:38:45;6.13;;;2.15;;
20296;SDS011;10307;40.100;18.336;2022-07-15T01:41:12;3.63;;;1.60;;
20296;SDS011;10307;40.100;18.336;2022-07-15T01:43:39;3.90;;;1.80;;
20296;SDS011;10307;40.100;18.336;2022-07-15T01:46:05;5.45;;;2.22;;
20296;SDS011;10307;40.100;18.336;2022-07-15T01:48:35;5.07;;;1.90;;
20296;SDS011;10307;40.100;18.336;2022-07-15T01:51:56;3.25;;;1.73;;
20296;SDS011;10307;40.100;18.336;2022-07-15T01:54:23;4.03;;;2.50;;
20296;SDS011;10307;40.100;18.336;2022-07-15T01:56:52;4.95;;;2.25;;
20296;SDS011;10307;40.100;18.336;2022-07-15T01:59:18;4.32;;;2.13;;
20296;SDS011;10307;40.100;18.336;2022-07-15T02:01:51;4.38;;;2.15;;
20296;SDS011;10307;40.100;18.336;2022-07-15T02:04:20;4.90;;;2.22;;
20296;SDS011;10307;40.100;18.336;2022-07-15T02:06:47;6.45;;;1.98;;
20296;SDS011;10307;40.100;18.336;2022-07-15T02:09:15;5.05;;;2.10;;
20296;SDS011;10307;40.100;18.336;2022-07-15T02:11:44;4.82;;;1.90;;
20296;SDS011;10307;40.100;18.336;2022-07-15T02:14:12;8.35;;;2.40;;
20296;SDS011;10307;40.100;18.336;2022-07-15T02:16:39;4.47;;;1.75;;
20296;SDS011;10307;40.100;18.336;2022-07-15T02:19:11;8.90;;;2.40;;
20296;SDS011;10307;40.100;18.336;2022-07-15T02:21:37;5.25;;;2.28;;
20296;SDS011;10307;40.100;18.336;2022-07-15T02:24:04;3.00;;;1.85;;
20296;SDS011;10307;40.100;18.336;2022-07-15T02:26:30;6.95;;;2.42;;
20296;SDS011;10307;40.100;18.336;2022-07-15T02:28:57;6.28;;;1.98;;
20296;SDS011;10307;40.100;18.336;2022-07-15T02:31:27;7.03;;;2.83;;
20296;SDS011;10307;40.100;18.336;2022-07-15T02:33:54;4.97;;;2.10;;
20296;SDS011;10307;40.100;18.336;2022-07-15T02:36:26;5.85;;;2.40;;
20296;SDS011;10307;40.100;18.336;2022-07-15T02:38:52;3.92;;;2.15;;
20296;SDS011;10307;40.100;18.336;2022-07-15T02:41:18;5.10;;;2.72;;
20296;SDS011;10307;40.100;18.336;2022-07-15T02:43:46;6.85;;;2.20;;
20296;SDS011;10307;40.100;18.336;2022-07-15T02:46:14;6.10;;;2.78;;
20296;SDS011;10307;40.100;18.336;2022-07-15T02:48:41;8.57;;;3.15;;
20296;SDS011;10307;40.100;18.336;2022-07-15T02:51:08;5.63;;;3.15;;
20296;SDS011;10307;40.100;18.336;2022-07-15T02:53:35;5.95;;;2.78;;
20296;SDS011;10307;40.100;18.336;2022-07-15T02:56:06;17.20;;;3.50;;
20296;SDS011;10307;40.100;18.336;2022-07-15T02:58:33;8.98;;;2.78;;
20296;SDS011;10307;40.100;18.336;2022-07-15T03:00:59;9.35;;;3.03;;
20296;SDS011;10307;40.100;18.336;2022-07-15T03:03:29;9.18;;;2.70;;
20296;SDS011;10307;40.100;18.336;2022-07-15T03:05:56;7.70;;;3.42;;
20296;SDS011;10307;40.100;18.336;2022-07-15T03:08:24;5.63;;;2.83;;
20296;SDS011;10307;40.100;18.336;2022-07-15T03:10:51;6.07;;;2.95;;
20296;SDS011;10307;40.100;18.336;2022-07-15T03:13:18;4.80;;;2.83;;
20296;SDS011;10307;40.100;18.336;2022-07-15T03:15:44;6.47;;;2.70;;
20296;SDS011;10307;40.100;18.336;2022-07-15T03:18:12;5.28;;;2.65;;
20296;SDS011;10307;40.100;18.336;2022-07-15T03:20:38;9.80;;;2.92;;
20296;SDS011;10307;40.100;18.336;2022-07-15T03:23:05;4.70;;;2.75;;
20296;SDS011;10307;40.100;18.336;2022-07-15T03:25:32;5.03;;;2.92;;
20296;SDS011;10307;40.100;18.336;2022-07-15T03:28:04;8.80;;;3.15;;
20296;SDS011;10307;40.100;18.336;2022-07-15T03:30:33;13.10;;;3.08;;
20296;SDS011;10307;40.100;18.336;2022-07-15T03:33:00;5.25;;;2.80;;
20296;SDS011;10307;40.100;18.336;2022-07-15T03:35:27;6.00;;;2.53;;
20296;SDS011;10307;40.100;18.336;2022-07-15T03:37:54;7.10;;;2.70;;
20296;SDS011;10307;40.100;18.336;2022-07-15T03:40:20;4.65;;;2.80;;
20296;SDS011;10307;40.100;18.336;2022-07-15T03:42:47;5.13;;;2.72;;
20296;SDS011;10307;40.100;18.336;2022-07-15T03:45:13;5.97;;;2.88;;
20296;SDS011;10307;40.100;18.336;2022-07-15T03:47:39;6.93;;;3.10;;
20296;SDS011;10307;40.100;18.336;2022-07-15T03:50:10;5.80;;;2.65;;
20296;SDS011;10307;40.100;18.336;2022-07-15T03:52:38;4.30;;;2.40;;
20296;SDS011;10307;40.100;18.336;2022-07-15T03:55:05;4.97;;;2.75;;
20296;SDS011;10307;40.100;18.336;2022-07-15T03:57:32;6.28;;;3.00;;
20296;SDS011;10307;40.100;18.336;2022-07-15T03:59:58;6.15;;;2.70;;
20296;SDS011;10307;40.100;18.336;2022-07-15T04:02:24;11.25;;;2.70;;
20296;SDS011;10307;40.100;18.336;2022-07-15T04:04:51;7.82;;;3.45;;
20296;SDS011;10307;40.100;18.336;2022-07-15T04:07:17;5.97;;;2.80;;
20296;SDS011;10307;40.100;18.336;2022-07-15T04:09:44;5.85;;;2.88;;
20296;SDS011;10307;40.100;18.336;2022-07-15T04:12:11;7.80;;;2.75;;
20296;SDS011;10307;40.100;18.336;2022-07-15T04:14:39;12.00;;;3.53;;
20296;SDS011;10307;40.100;18.336;2022-07-15T04:17:06;6.90;;;3.00;;
20296;SDS011;10307;40.100;18.336;2022-07-15T04:19:36;7.63;;;2.55;;
20296;SDS011;10307;40.100;18.336;2022-07-15T04:22:04;6.95;;;2.67;;
20296;SDS011;10307;40.100;18.336;2022-07-15T04:24:36;5.65;;;2.65;;
20296;SDS011;10307;40.100;18.336;2022-07-15T04:27:05;4.53;;;2.53;;
20296;SDS011;10307;40.100;18.336;2022-07-15T04:29:31;7.10;;;2.58;;
20296;SDS011;10307;40.100;18.336;2022-07-15T04:31:57;7.60;;;2.90;;
20296;SDS011;10307;40.100;18.336;2022-07-15T04:34:29;6.53;;;3.00;;
20296;SDS011;10307;40.100;18.336;2022-07-15T04:36:56;5.13;;;2.50;;
20296;SDS011;10307;40.100;18.336;2022-07-15T04:39:23;4.85;;;2.90;;
20296;SDS011;10307;40.100;18.336;2022-07-15T04:41:51;5.43;;;2.85;;
20296;SDS011;10307;40.100;18.336;2022-07-15T04:44:18;5.53;;;2.63;;
20296;SDS011;10307;40.100;18.336;2022-07-15T04:46:44;5.00;;;2.42;;
20296;SDS011;10307;40.100;18.336;2022-07-15T04:49:33;6.10;;;2.47;;
20296;SDS011;10307;40.100;18.336;2022-07-15T04:52:18;6.68;;;2.90;;
20296;SDS011;10307;40.100;18.336;2022-07-15T04:54:47;9.88;;;3.30;;
20296;SDS011;10307;40.100;18.336;2022-07-15T04:57:13;6.35;;;2.80;;
20296;SDS011;10307;40.100;18.336;2022-07-15T04:59:41;6.50;;;2.75;;
20296;SDS011;10307;40.100;18.336;2022-07-15T05:02:11;5.63;;;2.83;;
20296;SDS011;10307;40.100;18.336;2022-07-15T05:04:42;4.35;;;2.28;;
20296;SDS011;10307;40.100;18.336;2022-07-15T05:07:10;5.57;;;2.35;;
20296;SDS011;10307;40.100;18.336;2022-07-15T05:09:37;6.40;;;2.40;;
20296;SDS011;10307;40.100;18.336;2022-07-15T05:12:04;3.85;;;2.10;;
20296;SDS011;10307;40.100;18.336;2022-07-15T05:14:37;8.43;;;2.80;;
20296;SDS011;10307;40.100;18.336;2022-07-15T05:17:07;5.55;;;2.85;;
20296;SDS011;10307;40.100;18.336;2022-07-15T05:19:33;7.35;;;2.55;;
20296;SDS011;10307;40.100;18.336;2022-07-15T05:21:59;4.45;;;2.03;;
20296;SDS011;10307;40.100;18.336;2022-07-15T05:24:28;6.38;;;2.63;;
20296;SDS011;10307;40.100;18.336;2022-07-15T05:26:54;7.50;;;2.60;;
20296;SDS011;10307;40.100;18.336;2022-07-15T05:29:21;8.43;;;2.88;;
20296;SDS011;10307;40.100;18.336;2022-07-15T05:31:50;9.73;;;2.85;;
20296;SDS011;10307;40.100;18.336;2022-07-15T05:34:16;12.68;;;3.17;;
20296;SDS011;10307;40.100;18.336;2022-07-15T05:36:43;6.80;;;2.75;;
20296;SDS011;10307;40.100;18.336;2022-07-15T05:39:12;9.73;;;3.22;;
20296;SDS011;10307;40.100;18.336;2022-07-15T05:41:40;5.38;;;2.58;;
20296;SDS011;10307;40.100;18.336;2022-07-15T05:44:06;11.27;;;2.58;;
20296;SDS011;10307;40.100;18.336;2022-07-15T05:46:40;9.23;;;2.50;;
20296;SDS011;10307;40.100;18.336;2022-07-15T05:49:06;7.18;;;2.50;;
20296;SDS011;10307;40.100;18.336;2022-07-15T05:51:33;9.82;;;2.97;;
20296;SDS011;10307;40.100;18.336;2022-07-15T05:54:00;7.97;;;2.50;;
20296;SDS011;10307;40.100;18.336;2022-07-15T05:56:26;3.42;;;1.60;;
20296;SDS011;10307;40.100;18.336;2022-07-15T05:58:55;4.93;;;2.50;;
20296;SDS011;10307;40.100;18.336;2022-07-15T06:01:27;7.65;;;2.50;;
20296;SDS011;10307;40.100;18.336;2022-07-15T06:03:53;4.15;;;2.20;;
20296;SDS011;10307;40.100;18.336;2022-07-15T06:06:20;7.40;;;2.75;;
20296;SDS011;10307;40.100;18.336;2022-07-15T06:08:48;7.68;;;2.38;;
20296;SDS011;10307;40.100;18.336;2022-07-15T06:11:14;5.03;;;2.15;;
20296;SDS011;10307;40.100;18.336;2022-07-15T06:13:41;5.00;;;2.00;;
20296;SDS011;10307;40.100;18.336;2022-07-15T06:16:09;5.60;;;1.92;;
20296;SDS011;10307;40.100;18.336;2022-07-15T06:18:35;7.07;;;2.20;;
20296;SDS011;10307;40.100;18.336;2022-07-15T06:21:03;3.40;;;1.45;;
20296;SDS011;10307;40.100;18.336;2022-07-15T06:23:31;5.53;;;1.83;;
20296;SDS011;10307;40.100;18.336;2022-07-15T06:25:59;5.45;;;1.40;;
20296;SDS011;10307;40.100;18.336;2022-07-15T06:28:25;4.38;;;1.80;;
20296;SDS011;10307;40.100;18.336;2022-07-15T06:30:52;3.15;;;1.60;;
20296;SDS011;10307;40.100;18.336;2022-07-15T06:33:18;3.97;;;1.73;;
20296;SDS011;10307;40.100;18.336;2022-07-15T06:35:45;6.60;;;1.95;;
20296;SDS011;10307;40.100;18.336;2022-07-15T06:38:11;5.07;;;1.60;;
20296;SDS011;10307;40.100;18.336;2022-07-15T06:40:41;4.50;;;1.90;;
20296;SDS011;10307;40.100;18.336;2022-07-15T06:43:09;4.35;;;1.60;;
20296;SDS011;10307;40.100;18.336;2022-07-15T06:46:05;4.82;;;1.77;;
20296;SDS011;10307;40.100;18.336;2022-07-15T06:48:32;2.40;;;1.65;;
20296;SDS011;10307;40.100;18.336;2022-07-15T06:50:58;3.40;;;1.73;;
20296;SDS011;10307;40.100;18.336;2022-07-15T06:53:25;3.22;;;1.95;;
20296;SDS011;10307;40.100;18.336;2022-07-15T06:55:52;4.95;;;1.92;;
20296;SDS011;10307;40.100;18.336;2022-07-15T06:58:18;6.55;;;2.03;;
20296;SDS011;10307;40.100;18.336;2022-07-15T07:00:44;1.80;;;1.27;;
20296;SDS011;10307;40.100;18.336;2022-07-15T07:03:10;4.60;;;1.60;;
20296;SDS011;10307;40.100;18.336;2022-07-15T07:05:38;3.28;;;1.50;;
20296;SDS011;10307;40.100;18.336;2022-07-15T07:08:04;2.10;;;1.20;;
20296;SDS011;10307;40.100;18.336;2022-07-15T07:10:30;6.75;;;1.35;;
20296;SDS011;10307;40.100;18.336;2022-07-15T07:12:57;2.10;;;1.30;;
20296;SDS011;10307;40.100;18.336;2022-07-15T07:15:23;4.72;;;1.80;;
20296;SDS011;10307;40.100;18.336;2022-07-15T07:17:50;7.32;;;1.38;;
20296;SDS011;10307;40.100;18.336;2022-07-15T07:20:17;4.88;;;1.38;;
20296;SDS011;10307;40.100;18.336;2022-07-15T07:22:43;3.35;;;1.23;;
20296;SDS011;10307;40.100;18.336;2022-07-15T07:25:09;2.60;;;1.33;;
20296;SDS011;10307;40.100;18.336;2022-07-15T07:27:35;3.70;;;1.40;;
20296;SDS011;10307;40.100;18.336;2022-07-15T07:30:02;2.70;;;1.23;;
20296;SDS011;10307;40.100;18.336;2022-07-15T07:32:32;5.85;;;1.25;;
20296;SDS011;10307;40.100;18.336;2022-07-15T07:34:58;2.28;;;1.10;;
20296;SDS011;10307;40.100;18.336;2022-07-15T07:37:25;2.30;;;1.17;;
20296;SDS011;10307;40.100;18.336;2022-07-15T07:39:52;6.47;;;1.30;;
20296;SDS011;10307;40.100;18.336;2022-07-15T07:42:18;4.32;;;1.50;;
20296;SDS011;10307;40.100;18.336;2022-07-15T07:44:45;4.15;;;1.20;;
20296;SDS011;10307;40.100;18.336;2022-07-15T07:47:11;4.93;;;1.05;;
20296;SDS011;10307;40.100;18.336;2022-07-15T07:49:37;2.20;;;1.13;;
20296;SDS011;10307;40.100;18.336;2022-07-15T07:52:04;2.75;;;1.13;;
20296;SDS011;10307;40.100;18.336;2022-07-15T07:54:30;4.30;;;1.15;;
20296;SDS011;10307;40.100;18.336;2022-07-15T07:56:57;2.33;;;1.40;;
20296;SDS011;10307;40.100;18.336;2022-07-15T07:59:23;3.95;;;1.13;;
20296;SDS011;10307;40.100;18.336;2022-07-15T08:01:50;3.67;;;1.00;;
20296;SDS011;10307;40.100;18.336;2022-07-15T08:04:17;1.67;;;1.00;;
20296;SDS011;10307;40.100;18.336;2022-07-15T08:06:43;4.35;;;1.00;;
20296;SDS011;10307;40.100;18.336;2022-07-15T08:09:09;1.70;;;1.00;;
20296;SDS011;10307;40.100;18.336;2022-07-15T08:11:35;2.45;;;1.45;;
20296;SDS011;10307;40.100;18.336;2022-07-15T08:14:01;2.47;;;1.27;;
